Time;durP1;ratioP1;P1;durP2;ratioP2;P2;SDS_P1;SDS_P2;PMS_P1;PMS_P2;Temp;Humidity;BMP_temperature;BMP_pressure;BME280_temperature;BME280_humidity;BME280_pressure;Samples;Min_cycle;Max_cycle;Signal;HPM_P1;HPM_P2
2023/11/24 00:00:46;;;;;;;193.63;25.13;;;;;;;;;;5012115;28;20405;-40
2023/11/24 00:03:13;;;;;;;366.33;40.15;;;;;;;;;;5012854;28;20405;-39
2023/11/24 00:05:40;;;;;;;408.55;41.25;;;;;;;;;;5011816;28;20417;-40
2023/11/24 00:08:07;;;;;;;211.60;27.90;;;;;;;;;;5014992;28;20735;-39
2023/11/24 00:10:34;;;;;;;350.02;37.90;;;;;;;;;;5020979;28;20440;-40
2023/11/24 00:13:02;;;;;;;326.02;39.13;;;;;;;;;;5022229;28;20777;-39
2023/11/24 00:15:29;;;;;;;293.90;37.33;;;;;;;;;;5017264;28;20406;-41
2023/11/24 00:17:56;;;;;;;325.00;41.10;;;;;;;;;;5029830;28;20500;-40
2023/11/24 00:20:25;;;;;;;379.58;49.83;;;;;;;;;;5021574;28;20905;-40
2023/11/24 00:22:52;;;;;;;477.50;57.03;;;;;;;;;;5014420;28;20397;-40
2023/11/24 00:25:19;;;;;;;460.65;53.80;;;;;;;;;;5014598;28;20435;-40
2023/11/24 00:27:46;;;;;;;439.63;57.22;;;;;;;;;;5022304;28;21024;-39
2023/11/24 00:30:13;;;;;;;398.10;52.53;;;;;;;;;;5025303;28;20402;-39
2023/11/24 00:32:40;;;;;;;383.97;50.07;;;;;;;;;;5011920;28;20393;-40
2023/11/24 00:35:07;;;;;;;384.27;51.58;;;;;;;;;;5019739;28;20422;-40
2023/11/24 00:37:34;;;;;;;406.90;55.00;;;;;;;;;;5020125;28;20417;-40
2023/11/24 00:40:02;;;;;;;270.17;43.00;;;;;;;;;;5024611;28;20397;-40
2023/11/24 00:42:29;;;;;;;311.67;46.60;;;;;;;;;;5028720;28;20406;-39
2023/11/24 00:44:56;;;;;;;320.75;47.95;;;;;;;;;;5029521;28;20914;-40
2023/11/24 00:47:23;;;;;;;351.80;49.08;;;;;;;;;;5014201;28;20504;-39
2023/11/24 00:49:50;;;;;;;315.23;48.20;;;;;;;;;;5025085;28;20407;-40
2023/11/24 00:52:17;;;;;;;336.20;49.20;;;;;;;;;;5030844;28;20391;-39
2023/11/24 00:54:44;;;;;;;285.27;45.95;;;;;;;;;;5031323;28;20437;-40
2023/11/24 00:57:11;;;;;;;313.80;44.83;;;;;;;;;;5031243;28;20403;-39
2023/11/24 00:59:38;;;;;;;245.23;41.85;;;;;;;;;;5030766;28;20419;-40
2023/11/24 01:02:05;;;;;;;238.53;41.50;;;;;;;;;;5030637;28;20402;-40
2023/11/24 01:04:32;;;;;;;265.87;42.93;;;;;;;;;;5033246;28;20832;-40
2023/11/24 01:06:59;;;;;;;195.68;37.03;;;;;;;;;;5035119;28;20393;-40
2023/11/24 01:09:26;;;;;;;197.77;38.50;;;;;;;;;;5039099;28;20962;-39
2023/11/24 01:11:53;;;;;;;212.65;39.55;;;;;;;;;;5035634;28;20453;-40
2023/11/24 01:14:20;;;;;;;196.80;38.92;;;;;;;;;;5031181;28;20399;-39
2023/11/24 01:16:47;;;;;;;195.43;36.10;;;;;;;;;;5042223;28;20902;-40
2023/11/24 01:19:14;;;;;;;280.58;42.75;;;;;;;;;;5024212;28;20399;-40
2023/11/24 01:21:41;;;;;;;206.25;37.53;;;;;;;;;;5026660;28;20492;-40
2023/11/24 01:24:08;;;;;;;223.63;39.28;;;;;;;;;;5003913;28;20443;-37
2023/11/24 01:26:37;;;;;;;221.05;38.97;;;;;;;;;;5019907;28;21336;-38
2023/11/24 01:29:05;;;;;;;207.93;35.08;;;;;;;;;;5021115;28;20403;-39
2023/11/24 01:31:33;;;;;;;212.27;38.42;;;;;;;;;;5021014;28;20585;-39
2023/11/24 01:34:00;;;;;;;219.70;37.85;;;;;;;;;;5019448;28;20763;-39
2023/11/24 01:36:27;;;;;;;227.38;39.30;;;;;;;;;;5021274;28;20549;-39
2023/11/24 01:38:54;;;;;;;247.63;40.33;;;;;;;;;;5021988;28;20387;-39
2023/11/24 01:41:21;;;;;;;196.30;35.92;;;;;;;;;;5020101;28;20440;-39
2023/11/24 01:43:58;;;;;;;216.30;36.97;;;;;;;;;;5019936;28;20400;-39
2023/11/24 01:46:25;;;;;;;192.40;35.17;;;;;;;;;;5015501;28;20425;-39
2023/11/24 01:48:53;;;;;;;191.03;33.70;;;;;;;;;;5023503;28;20406;-39
2023/11/24 01:51:21;;;;;;;180.85;33.90;;;;;;;;;;5009945;28;20412;-39
2023/11/24 01:53:48;;;;;;;171.65;32.97;;;;;;;;;;5023722;28;20410;-38
2023/11/24 01:56:15;;;;;;;166.43;30.27;;;;;;;;;;5032827;28;20409;-38
2023/11/24 01:58:42;;;;;;;146.20;29.27;;;;;;;;;;5014918;28;20478;-38
2023/11/24 02:01:09;;;;;;;142.23;29.23;;;;;;;;;;5033490;28;20408;-38
2023/11/24 02:03:36;;;;;;;125.22;27.25;;;;;;;;;;5024758;28;20399;-38
2023/11/24 02:06:05;;;;;;;142.02;29.45;;;;;;;;;;5023374;28;20435;-38
2023/11/24 02:08:32;;;;;;;107.93;26.38;;;;;;;;;;5013552;28;20409;-38
2023/11/24 02:10:59;;;;;;;126.30;26.40;;;;;;;;;;5018938;28;20498;-38
2023/11/24 02:13:28;;;;;;;129.18;27.30;;;;;;;;;;5013960;28;20432;-38
2023/11/24 02:15:55;;;;;;;114.55;26.30;;;;;;;;;;5016856;28;20399;-38
2023/11/24 02:18:22;;;;;;;126.32;28.10;;;;;;;;;;5021081;28;20426;-38
2023/11/24 02:20:49;;;;;;;113.47;25.63;;;;;;;;;;5025661;28;20426;-37
2023/11/24 02:23:16;;;;;;;112.30;25.55;;;;;;;;;;5025694;28;20399;-37
2023/11/24 02:25:43;;;;;;;102.90;25.00;;;;;;;;;;5025325;28;20847;-37
2023/11/24 02:28:10;;;;;;;104.63;23.58;;;;;;;;;;5025861;28;20489;-37
2023/11/24 02:30:40;;;;;;;106.72;23.52;;;;;;;;;;5022404;28;20468;-37
2023/11/24 02:33:07;;;;;;;105.97;22.60;;;;;;;;;;5018075;28;20432;-37
2023/11/24 02:35:37;;;;;;;93.40;22.10;;;;;;;;;;5010333;28;20400;-38
2023/11/24 02:38:04;;;;;;;96.28;24.10;;;;;;;;;;5010226;28;20384;-38
2023/11/24 02:40:32;;;;;;;98.03;23.77;;;;;;;;;;5010375;28;20399;-37
2023/11/24 02:42:59;;;;;;;81.65;21.42;;;;;;;;;;5010302;28;20400;-37
2023/11/24 02:45:26;;;;;;;90.60;22.27;;;;;;;;;;5011035;28;20419;-37
2023/11/24 02:47:53;;;;;;;90.00;21.35;;;;;;;;;;5014251;28;20475;-38
2023/11/24 02:50:20;;;;;;;84.43;20.15;;;;;;;;;;5014141;28;21109;-37
2023/11/24 02:52:47;;;;;;;87.95;20.95;;;;;;;;;;5014253;28;20381;-37
2023/11/24 02:55:15;;;;;;;82.07;19.52;;;;;;;;;;5014123;28;20392;-37
2023/11/24 02:57:43;;;;;;;89.82;20.27;;;;;;;;;;5014041;28;20393;-37
2023/11/24 03:00:12;;;;;;;79.85;20.27;;;;;;;;;;5013633;28;20974;-37
2023/11/24 03:02:42;;;;;;;79.72;19.88;;;;;;;;;;5014037;28;20891;-37
2023/11/24 03:05:11;;;;;;;70.68;19.00;;;;;;;;;;5013877;28;20462;-38
2023/11/24 03:07:38;;;;;;;70.35;18.65;;;;;;;;;;5013837;28;20381;-37
2023/11/24 03:10:05;;;;;;;71.15;17.60;;;;;;;;;;5013868;28;20377;-37
2023/11/24 03:12:33;;;;;;;71.65;18.90;;;;;;;;;;5013710;28;20463;-37
2023/11/24 03:15:00;;;;;;;73.70;18.98;;;;;;;;;;5013659;28;20796;-37
2023/11/24 03:17:27;;;;;;;63.30;16.90;;;;;;;;;;5013815;28;20384;-37
2023/11/24 03:19:54;;;;;;;70.00;18.70;;;;;;;;;;5013658;28;20384;-37
2023/11/24 03:22:21;;;;;;;66.60;18.30;;;;;;;;;;5013620;28;20405;-38
2023/11/24 03:24:48;;;;;;;64.40;17.07;;;;;;;;;;5013368;28;20417;-37
2023/11/24 03:27:15;;;;;;;60.15;16.30;;;;;;;;;;5013534;28;20384;-38
2023/11/24 03:29:43;;;;;;;60.88;16.17;;;;;;;;;;5013383;28;20898;-38
2023/11/24 03:32:09;;;;;;;56.58;15.57;;;;;;;;;;5013404;28;20447;-37
2023/11/24 03:34:36;;;;;;;57.90;14.95;;;;;;;;;;5013464;28;20468;-38
2023/11/24 03:37:03;;;;;;;57.90;15.60;;;;;;;;;;5013299;28;20446;-38
2023/11/24 03:39:30;;;;;;;57.92;15.93;;;;;;;;;;5013240;28;20381;-37
2023/11/24 03:41:57;;;;;;;53.53;14.40;;;;;;;;;;5013291;28;20388;-37
2023/11/24 03:44:24;;;;;;;56.70;15.18;;;;;;;;;;5013292;28;20535;-37
2023/11/24 03:46:51;;;;;;;55.00;15.10;;;;;;;;;;5013101;28;20421;-37
2023/11/24 03:49:18;;;;;;;45.65;13.88;;;;;;;;;;5013151;28;20503;-38
2023/11/24 03:51:45;;;;;;;56.25;15.15;;;;;;;;;;5013021;28;20389;-38
2023/11/24 03:54:12;;;;;;;45.80;14.18;;;;;;;;;;5013076;28;20897;-37
2023/11/24 03:56:39;;;;;;;47.60;14.13;;;;;;;;;;5012554;28;20754;-37
2023/11/24 03:59:06;;;;;;;55.60;14.75;;;;;;;;;;5012706;28;20408;-37
2023/11/24 04:01:34;;;;;;;48.67;13.00;;;;;;;;;;5012863;28;20465;-37
2023/11/24 04:04:01;;;;;;;45.58;12.40;;;;;;;;;;5012700;28;20898;-37
2023/11/24 04:06:28;;;;;;;42.30;12.52;;;;;;;;;;5012715;28;20545;-37
2023/11/24 04:08:55;;;;;;;39.67;11.40;;;;;;;;;;5012791;28;20397;-37
2023/11/24 04:11:22;;;;;;;40.30;11.73;;;;;;;;;;5012624;28;20908;-37
2023/11/24 04:13:49;;;;;;;44.58;12.45;;;;;;;;;;5012715;28;20389;-38
2023/11/24 04:16:17;;;;;;;37.45;11.27;;;;;;;;;;5012518;28;20396;-38
2023/11/24 04:18:45;;;;;;;38.35;11.32;;;;;;;;;;5012491;28;20867;-38
2023/11/24 04:21:12;;;;;;;37.50;10.63;;;;;;;;;;4994750;28;20400;-37
2023/11/24 04:23:39;;;;;;;39.97;10.77;;;;;;;;;;5012518;28;20430;-37
2023/11/24 04:26:09;;;;;;;38.22;10.75;;;;;;;;;;5012305;28;20966;-37
2023/11/24 04:28:36;;;;;;;34.50;10.57;;;;;;;;;;5012259;28;20466;-37
2023/11/24 04:31:03;;;;;;;32.92;9.32;;;;;;;;;;5012244;28;20743;-37
2023/11/24 04:33:31;;;;;;;37.07;10.20;;;;;;;;;;5012153;28;20381;-38
2023/11/24 04:35:58;;;;;;;35.35;9.18;;;;;;;;;;5012008;28;20396;-37
2023/11/24 04:38:25;;;;;;;35.97;10.05;;;;;;;;;;5012167;28;20376;-37
2023/11/24 04:40:52;;;;;;;32.08;9.70;;;;;;;;;;5011900;28;20391;-37
2023/11/24 04:43:23;;;;;;;32.50;8.82;;;;;;;;;;5012240;28;20389;-38
2023/11/24 04:45:51;;;;;;;34.30;8.45;;;;;;;;;;5011783;28;20494;-37
2023/11/24 04:48:18;;;;;;;31.48;8.05;;;;;;;;;;5011946;28;20443;-37
2023/11/24 04:50:45;;;;;;;29.35;7.95;;;;;;;;;;5011802;28;20380;-37
2023/11/24 04:53:12;;;;;;;25.60;7.18;;;;;;;;;;5011795;28;20385;-38
2023/11/24 04:55:39;;;;;;;30.23;8.07;;;;;;;;;;5011832;28;20442;-38
2023/11/24 04:58:06;;;;;;;25.77;7.60;;;;;;;;;;5011772;28;20389;-37
2023/11/24 05:00:33;;;;;;;27.30;7.10;;;;;;;;;;5011512;28;20417;-37
2023/11/24 05:03:00;;;;;;;25.92;7.28;;;;;;;;;;5011756;28;20384;-37
2023/11/24 05:05:26;;;;;;;26.10;7.40;;;;;;;;;;5011633;28;20460;-37
2023/11/24 05:07:53;;;;;;;28.85;7.25;;;;;;;;;;5011087;28;20897;-37
2023/11/24 05:10:20;;;;;;;23.10;6.83;;;;;;;;;;5011559;28;20381;-38
2023/11/24 05:12:47;;;;;;;23.33;6.40;;;;;;;;;;5011694;28;20460;-37
2023/11/24 05:15:14;;;;;;;22.98;6.57;;;;;;;;;;5011449;28;20395;-37
2023/11/24 05:17:41;;;;;;;23.83;6.38;;;;;;;;;;5011623;28;20454;-38
2023/11/24 05:20:12;;;;;;;24.35;6.30;;;;;;;;;;5011463;28;20952;-38
2023/11/24 05:22:41;;;;;;;24.15;6.43;;;;;;;;;;5011313;28;20381;-37
2023/11/24 05:25:09;;;;;;;25.63;6.07;;;;;;;;;;5011313;28;20409;-37
2023/11/24 05:27:36;;;;;;;21.23;6.25;;;;;;;;;;5011368;28;20776;-37
2023/11/24 05:30:08;;;;;;;18.88;5.55;;;;;;;;;;5011210;28;20377;-38
2023/11/24 05:32:35;;;;;;;19.90;5.40;;;;;;;;;;5011305;28;20393;-37
2023/11/24 05:35:03;;;;;;;19.33;5.72;;;;;;;;;;5011152;28;20393;-38
2023/11/24 05:37:29;;;;;;;24.17;5.80;;;;;;;;;;5011271;28;20385;-38
2023/11/24 05:39:56;;;;;;;18.88;5.30;;;;;;;;;;5011065;28;20400;-37
2023/11/24 05:42:24;;;;;;;17.20;4.60;;;;;;;;;;5011165;28;20393;-38
2023/11/24 05:44:50;;;;;;;19.58;5.25;;;;;;;;;;5010888;28;20751;-37
2023/11/24 05:47:17;;;;;;;18.63;4.80;;;;;;;;;;5011139;28;20803;-38
2023/11/24 05:49:46;;;;;;;16.20;4.53;;;;;;;;;;5010928;28;20385;-38
2023/11/24 05:52:16;;;;;;;14.57;4.50;;;;;;;;;;5010847;28;20486;-37
2023/11/24 05:54:43;;;;;;;18.35;4.60;;;;;;;;;;5010987;28;20411;-38
2023/11/24 05:57:10;;;;;;;18.35;4.82;;;;;;;;;;5010805;28;20377;-37
2023/11/24 05:59:39;;;;;;;15.57;4.60;;;;;;;;;;5010590;28;20775;-37
2023/11/24 06:02:06;;;;;;;15.68;4.18;;;;;;;;;;5021746;28;20954;-37
2023/11/24 06:04:34;;;;;;;14.68;4.57;;;;;;;;;;5030593;28;20382;-37
2023/11/24 06:07:01;;;;;;;13.73;4.38;;;;;;;;;;5030499;28;20430;-37
2023/11/24 06:09:29;;;;;;;13.25;4.00;;;;;;;;;;5030405;28;20757;-37
2023/11/24 06:11:56;;;;;;;12.40;4.37;;;;;;;;;;5030480;28;20390;-37
2023/11/24 06:14:23;;;;;;;12.57;3.60;;;;;;;;;;5030540;28;20426;-37
2023/11/24 06:16:50;;;;;;;16.98;4.03;;;;;;;;;;5030501;28;20440;-38
2023/11/24 06:19:17;;;;;;;14.90;3.85;;;;;;;;;;5030859;28;20440;-37
2023/11/24 06:21:44;;;;;;;13.38;3.67;;;;;;;;;;5034339;28;20442;-37
2023/11/24 06:24:11;;;;;;;14.68;3.83;;;;;;;;;;5034535;28;20391;-37
2023/11/24 06:26:38;;;;;;;14.65;4.10;;;;;;;;;;5034464;28;20415;-38
2023/11/24 06:29:05;;;;;;;13.35;4.03;;;;;;;;;;5034427;28;20437;-37
2023/11/24 06:31:32;;;;;;;15.60;3.85;;;;;;;;;;5034304;28;20928;-37
2023/11/24 06:33:59;;;;;;;14.50;3.83;;;;;;;;;;5034455;28;20501;-37
2023/11/24 06:36:26;;;;;;;15.40;3.38;;;;;;;;;;5034402;28;20375;-38
2023/11/24 06:38:53;;;;;;;12.85;3.40;;;;;;;;;;5034315;28;20470;-37
2023/11/24 06:41:20;;;;;;;14.43;3.55;;;;;;;;;;5034229;28;21249;-37
2023/11/24 06:43:47;;;;;;;13.02;3.40;;;;;;;;;;5034244;28;20385;-37
2023/11/24 06:46:14;;;;;;;11.70;3.20;;;;;;;;;;5033908;28;20900;-38
2023/11/24 06:48:41;;;;;;;11.85;3.33;;;;;;;;;;5034053;28;20379;-37
2023/11/24 06:51:08;;;;;;;12.10;3.10;;;;;;;;;;5033941;28;20380;-37
2023/11/24 06:53:35;;;;;;;9.25;3.08;;;;;;;;;;5033984;28;20861;-38
2023/11/24 06:56:02;;;;;;;9.10;2.67;;;;;;;;;;5033964;28;20864;-37
2023/11/24 06:58:29;;;;;;;10.82;3.17;;;;;;;;;;5033771;28;20394;-37
2023/11/24 07:00:56;;;;;;;13.80;3.35;;;;;;;;;;5015845;28;20485;-37
2023/11/24 07:03:23;;;;;;;10.85;3.33;;;;;;;;;;5033981;28;20394;-38
2023/11/24 07:05:50;;;;;;;11.93;3.30;;;;;;;;;;5033628;28;20411;-37
2023/11/24 07:08:17;;;;;;;11.63;3.00;;;;;;;;;;5033775;28;20390;-37
2023/11/24 07:10:44;;;;;;;12.83;3.43;;;;;;;;;;5033597;28;20386;-38
2023/11/24 07:13:11;;;;;;;11.35;2.95;;;;;;;;;;5033675;28;20383;-42
2023/11/24 07:15:38;;;;;;;9.15;2.83;;;;;;;;;;5033656;28;20391;-37
2023/11/24 07:18:05;;;;;;;8.88;2.90;;;;;;;;;;5033577;28;20389;-37
2023/11/24 07:20:32;;;;;;;10.13;2.47;;;;;;;;;;5033507;28;20395;-37
2023/11/24 07:22:59;;;;;;;8.45;2.53;;;;;;;;;;5033394;28;20412;-38
2023/11/24 07:25:26;;;;;;;10.63;2.58;;;;;;;;;;5033187;28;20411;-37
2023/11/24 07:27:53;;;;;;;9.65;2.42;;;;;;;;;;5033331;28;20829;-37
2023/11/24 07:30:22;;;;;;;9.93;2.80;;;;;;;;;;5033156;28;20824;-37
2023/11/24 07:32:52;;;;;;;9.15;2.70;;;;;;;;;;5032367;28;20402;-37
2023/11/24 07:35:20;;;;;;;10.13;2.63;;;;;;;;;;5033224;28;20444;-37
2023/11/24 07:37:47;;;;;;;9.35;2.58;;;;;;;;;;5033212;28;20900;-37
2023/11/24 07:40:14;;;;;;;8.68;2.60;;;;;;;;;;5033095;28;20903;-37
2023/11/24 07:42:46;;;;;;;9.35;2.70;;;;;;;;;;5033131;28;20387;-38
2023/11/24 07:45:15;;;;;;;7.85;1.98;;;;;;;;;;5032881;28;20764;-37
2023/11/24 07:47:43;;;;;;;8.37;2.10;;;;;;;;;;5033209;28;20727;-37
2023/11/24 07:50:10;;;;;;;7.03;1.98;;;;;;;;;;5033026;28;20745;-37
2023/11/24 07:52:37;;;;;;;7.05;2.50;;;;;;;;;;5032957;28;20781;-37
2023/11/24 07:55:05;;;;;;;6.85;2.50;;;;;;;;;;5032933;28;20387;-37
2023/11/24 07:57:32;;;;;;;9.80;2.42;;;;;;;;;;5032829;28;20435;-37
2023/11/24 08:00:00;;;;;;;7.20;2.13;;;;;;;;;;5032586;28;20502;-38
2023/11/24 08:02:27;;;;;;;7.03;2.00;;;;;;;;;;5032627;28;20953;-38
2023/11/24 08:04:54;;;;;;;8.48;2.13;;;;;;;;;;5032683;28;20379;-38
2023/11/24 08:07:22;;;;;;;7.43;2.08;;;;;;;;;;5032593;28;20806;-37
2023/11/24 08:09:49;;;;;;;6.25;2.00;;;;;;;;;;5032470;28;20384;-37
2023/11/24 08:12:16;;;;;;;7.43;2.25;;;;;;;;;;5032720;28;20394;-38
2023/11/24 08:14:43;;;;;;;8.05;1.85;;;;;;;;;;5032531;28;20374;-37
2023/11/24 08:17:10;;;;;;;5.60;1.80;;;;;;;;;;5032479;28;20383;-37
2023/11/24 08:19:37;;;;;;;8.93;2.30;;;;;;;;;;5032399;28;21192;-38
2023/11/24 08:22:04;;;;;;;6.78;1.88;;;;;;;;;;5032370;28;20391;-37
2023/11/24 08:24:31;;;;;;;6.72;2.00;;;;;;;;;;5032430;28;20382;-37
2023/11/24 08:26:58;;;;;;;5.88;1.50;;;;;;;;;;5032213;28;20410;-37
2023/11/24 08:29:26;;;;;;;5.88;1.80;;;;;;;;;;5032351;28;21053;-37
2023/11/24 08:31:53;;;;;;;7.75;1.85;;;;;;;;;;5031988;28;20750;-37
2023/11/24 08:34:20;;;;;;;6.82;1.80;;;;;;;;;;5032246;28;20975;-37
2023/11/24 08:36:47;;;;;;;5.63;1.97;;;;;;;;;;5032166;28;20383;-37
2023/11/24 08:39:14;;;;;;;5.32;1.92;;;;;;;;;;5031840;28;20403;-37
2023/11/24 08:41:45;;;;;;;9.63;2.00;;;;;;;;;;5014210;28;20486;-38
2023/11/24 08:44:14;;;;;;;6.63;1.92;;;;;;;;;;5031940;28;20395;-37
2023/11/24 08:46:42;;;;;;;5.87;2.00;;;;;;;;;;5031902;28;20496;-37
2023/11/24 08:49:10;;;;;;;6.03;1.83;;;;;;;;;;5031743;28;20478;-38
2023/11/24 08:51:39;;;;;;;6.68;1.90;;;;;;;;;;5031799;28;20490;-38
2023/11/24 08:54:07;;;;;;;5.35;1.50;;;;;;;;;;5031757;28;20387;-37
2023/11/24 08:56:34;;;;;;;4.10;1.52;;;;;;;;;;5031786;28;20426;-38
2023/11/24 08:59:01;;;;;;;6.18;1.52;;;;;;;;;;5031449;28;20923;-37
2023/11/24 09:01:27;;;;;;;6.30;1.60;;;;;;;;;;5031712;28;20379;-37
2023/11/24 09:03:54;;;;;;;7.05;1.80;;;;;;;;;;5031578;28;20880;-37
2023/11/24 09:06:28;;;;;;;5.97;1.60;;;;;;;;;;5031554;28;20407;-37
2023/11/24 09:08:58;;;;;;;4.45;1.60;;;;;;;;;;5031345;28;20379;-38
2023/11/24 09:11:26;;;;;;;6.20;1.42;;;;;;;;;;5025830;28;20407;-38
2023/11/24 09:13:53;;;;;;;4.80;1.33;;;;;;;;;;5014259;28;20467;-38
2023/11/24 09:16:20;;;;;;;6.23;1.20;;;;;;;;;;5011683;28;20389;-38
2023/11/24 09:18:47;;;;;;;7.97;1.70;;;;;;;;;;5016093;28;20421;-37
2023/11/24 09:21:14;;;;;;;9.75;1.60;;;;;;;;;;5024006;28;20396;-37
2023/11/24 09:23:41;;;;;;;5.53;1.40;;;;;;;;;;5019460;28;20398;-38
2023/11/24 09:26:09;;;;;;;9.90;1.77;;;;;;;;;;5020455;28;21132;-38
2023/11/24 09:28:39;;;;;;;12.98;1.90;;;;;;;;;;5019767;28;20409;-38
2023/11/24 09:31:12;;;;;;;11.50;1.95;;;;;;;;;;5019871;28;20395;-38
2023/11/24 09:33:39;;;;;;;14.10;2.00;;;;;;;;;;5020207;28;20474;-38
2023/11/24 09:36:07;;;;;;;14.63;1.67;;;;;;;;;;5014965;28;20397;-38
2023/11/24 09:38:34;;;;;;;13.90;2.20;;;;;;;;;;5015464;28;20926;-38
2023/11/24 09:41:09;;;;;;;10.63;2.00;;;;;;;;;;5030670;28;20900;-37
2023/11/24 09:43:37;;;;;;;8.82;1.75;;;;;;;;;;5030428;28;20421;-38
2023/11/24 09:46:04;;;;;;;8.02;1.73;;;;;;;;;;5030952;28;20418;-38
2023/11/24 09:48:34;;;;;;;10.15;1.92;;;;;;;;;;5030895;28;20737;-38
2023/11/24 09:51:10;;;;;;;8.73;1.63;;;;;;;;;;5030710;28;20449;-38
2023/11/24 09:53:37;;;;;;;10.68;1.67;;;;;;;;;;5031003;28;20453;-37
2023/11/24 09:56:04;;;;;;;10.48;1.77;;;;;;;;;;5030381;28;20375;-37
2023/11/24 09:58:32;;;;;;;7.95;1.75;;;;;;;;;;5030747;28;20405;-38
2023/11/24 10:01:05;;;;;;;10.60;1.60;;;;;;;;;;5030517;28;20423;-38
2023/11/24 10:03:34;;;;;;;8.02;1.70;;;;;;;;;;5030542;28;20429;-37
2023/11/24 10:06:01;;;;;;;8.65;1.60;;;;;;;;;;5030502;28;20414;-38
2023/11/24 10:08:28;;;;;;;10.52;1.70;;;;;;;;;;5030546;28;20398;-38
2023/11/24 10:11:12;;;;;;;10.07;1.90;;;;;;;;;;5028024;28;20391;-38
2023/11/24 10:13:43;;;;;;;10.95;1.80;;;;;;;;;;5020870;28;20502;-37
2023/11/24 10:16:13;;;;;;;21.52;2.42;;;;;;;;;;5011840;28;21028;-38
2023/11/24 10:18:41;;;;;;;18.30;2.50;;;;;;;;;;5020589;28;20410;-39
2023/11/24 10:21:11;;;;;;;19.48;2.58;;;;;;;;;;5017966;28;20478;-37
2023/11/24 10:23:41;;;;;;;18.27;2.65;;;;;;;;;;5019126;28;20417;-39
2023/11/24 10:26:18;;;;;;;19.17;2.15;;;;;;;;;;5002744;28;20441;-39
2023/11/24 10:28:46;;;;;;;21.85;2.53;;;;;;;;;;5018258;28;20459;-37
2023/11/24 10:31:13;;;;;;;24.80;2.75;;;;;;;;;;5018945;28;20441;-39
2023/11/24 10:33:41;;;;;;;18.70;2.67;;;;;;;;;;5019944;28;20435;-39
2023/11/24 10:36:08;;;;;;;23.85;2.65;;;;;;;;;;5016917;28;20411;-39
2023/11/24 10:38:38;;;;;;;24.10;2.60;;;;;;;;;;5010566;28;20419;-40
2023/11/24 10:41:07;;;;;;;23.40;2.27;;;;;;;;;;5010241;28;20412;-40
2023/11/24 10:43:35;;;;;;;21.85;2.78;;;;;;;;;;5010252;28;20393;-40
2023/11/24 10:46:05;;;;;;;20.80;2.30;;;;;;;;;;5008724;28;20444;-40
2023/11/24 10:48:40;;;;;;;38.53;4.00;;;;;;;;;;5010020;28;20886;-45
2023/11/24 10:51:14;;;;;;;22.35;2.63;;;;;;;;;;5010240;28;20408;-45
2023/11/24 10:53:49;;;;;;;21.47;2.40;;;;;;;;;;5010085;28;21253;-46
2023/11/24 10:56:22;;;;;;;15.50;2.10;;;;;;;;;;5008128;28;20393;-45
2023/11/24 10:58:52;;;;;;;28.52;3.25;;;;;;;;;;5009497;28;20401;-45
2023/11/24 11:01:23;;;;;;;35.38;3.47;;;;;;;;;;5009970;28;20401;-44
2023/11/24 11:03:58;;;;;;;23.20;3.10;;;;;;;;;;5010212;28;20389;-45
2023/11/24 11:06:43;;;;;;;21.02;2.80;;;;;;;;;;5008794;28;20917;-45
2023/11/24 11:09:23;;;;;;;38.67;3.63;;;;;;;;;;5013582;28;20484;-44
2023/11/24 11:12:13;;;;;;;34.70;3.00;;;;;;;;;;5016109;28;20412;-44
2023/11/24 11:14:43;;;;;;;25.27;2.95;;;;;;;;;;5027968;28;20901;-41
2023/11/24 11:17:23;;;;;;;23.92;2.85;;;;;;;;;;5029454;28;20022;-58
2023/11/24 11:20:14;;;;;;;39.90;3.72;;;;;;;;;;5028529;28;20041;-39
2023/11/24 11:22:46;;;;;;;50.03;4.00;;;;;;;;;;5027952;28;20076;-50
2023/11/24 11:25:25;;;;;;;66.05;4.90;;;;;;;;;;5024203;28;20041;-45
2023/11/24 11:27:55;;;;;;;102.68;7.85;;;;;;;;;;5015729;28;20093;-48
2023/11/24 11:30:26;;;;;;;69.43;6.32;;;;;;;;;;5017744;28;20037;-48
2023/11/24 11:33:02;;;;;;;62.67;4.93;;;;;;;;;;5019928;28;20036;-47
2023/11/24 11:35:29;;;;;;;70.80;7.00;;;;;;;;;;5024874;28;20119;-48
2023/11/24 11:37:59;;;;;;;227.45;22.77;;;;;;;;;;5019081;28;20030;-47
2023/11/24 11:40:32;;;;;;;113.35;10.88;;;;;;;;;;5018571;28;20079;-47
2023/11/24 11:43:05;;;;;;;107.55;11.65;;;;;;;;;;5019162;28;20601;-45
2023/11/24 11:45:33;;;;;;;88.57;10.68;;;;;;;;;;5017040;28;20119;-46
2023/11/24 11:48:02;;;;;;;53.80;6.20;;;;;;;;;;5024186;28;20038;-48
2023/11/24 11:50:32;;;;;;;73.75;7.07;;;;;;;;;;5022857;28;20446;-48
2023/11/24 11:53:00;;;;;;;40.33;5.22;;;;;;;;;;5022942;28;20107;-45
2023/11/24 11:55:31;;;;;;;47.03;4.57;;;;;;;;;;5023705;28;20095;-45
2023/11/24 11:58:00;;;;;;;40.25;4.50;;;;;;;;;;5023585;28;20031;-44
2023/11/24 12:00:28;;;;;;;49.70;5.43;;;;;;;;;;5023358;28;20423;-44
2023/11/24 12:02:55;;;;;;;58.15;5.82;;;;;;;;;;5023454;28;20091;-43
2023/11/24 12:05:22;;;;;;;58.40;5.00;;;;;;;;;;5025666;28;20034;-44
2023/11/24 12:07:51;;;;;;;49.60;5.10;;;;;;;;;;5029446;28;20034;-44
2023/11/24 12:10:18;;;;;;;33.20;4.05;;;;;;;;;;5013831;28;20034;-45
2023/11/24 12:12:45;;;;;;;27.90;2.88;;;;;;;;;;5013515;28;20040;-44
2023/11/24 12:15:17;;;;;;;24.73;3.13;;;;;;;;;;5013799;28;20037;-43
2023/11/24 12:17:48;;;;;;;28.85;3.17;;;;;;;;;;5013689;28;20120;-44
2023/11/24 12:20:16;;;;;;;28.63;3.30;;;;;;;;;;5013691;28;20032;-43
2023/11/24 12:22:44;;;;;;;34.97;3.35;;;;;;;;;;5014199;28;20434;-47
2023/11/24 12:25:12;;;;;;;34.95;3.90;;;;;;;;;;5013266;28;20026;-43
2023/11/24 12:27:42;;;;;;;35.20;3.88;;;;;;;;;;5015055;28;20030;-44
2023/11/24 12:30:19;;;;;;;35.28;3.90;;;;;;;;;;5028663;28;20112;-43
2023/11/24 12:32:46;;;;;;;36.85;3.67;;;;;;;;;;5015174;28;20521;-45
2023/11/24 12:35:14;;;;;;;39.42;4.47;;;;;;;;;;5032926;28;20108;-48
2023/11/24 12:37:46;;;;;;;37.60;3.95;;;;;;;;;;5032847;28;20041;-48
2023/11/24 12:40:13;;;;;;;43.50;4.10;;;;;;;;;;5032919;28;20044;-48
2023/11/24 12:42:43;;;;;;;25.98;3.60;;;;;;;;;;5028926;28;20476;-48
2023/11/24 12:45:12;;;;;;;30.40;3.58;;;;;;;;;;5021697;28;20108;-49
2023/11/24 12:47:39;;;;;;;25.90;2.85;;;;;;;;;;5032306;28;20032;-49
2023/11/24 12:50:14;;;;;;;35.42;3.05;;;;;;;;;;5019598;28;20052;-48
2023/11/24 12:52:43;;;;;;;36.38;3.30;;;;;;;;;;5018554;28;20052;-48
2023/11/24 12:55:10;;;;;;;35.70;3.38;;;;;;;;;;5000880;28;20033;-48
2023/11/24 12:57:42;;;;;;;31.73;2.97;;;;;;;;;;5021712;28;20049;-49
2023/11/24 13:00:09;;;;;;;33.65;3.63;;;;;;;;;;5023905;28;20054;-49
2023/11/24 13:02:39;;;;;;;25.42;3.80;;;;;;;;;;5023302;28;20060;-49
2023/11/24 13:05:10;;;;;;;33.00;3.20;;;;;;;;;;5019959;28;20048;-50
2023/11/24 13:07:37;;;;;;;38.88;3.72;;;;;;;;;;5019039;28;20100;-51
2023/11/24 13:10:09;;;;;;;44.05;3.78;;;;;;;;;;5022336;28;20065;-50
2023/11/24 13:12:36;;;;;;;26.63;2.92;;;;;;;;;;5018388;28;20041;-48
2023/11/24 13:15:07;;;;;;;63.42;9.20;;;;;;;;;;5021529;28;20029;-48
2023/11/24 13:17:34;;;;;;;51.25;8.15;;;;;;;;;;5024107;28;20041;-48
2023/11/24 13:20:01;;;;;;;40.92;5.60;;;;;;;;;;5020542;28;20041;-49
2023/11/24 13:22:28;;;;;;;41.55;4.85;;;;;;;;;;5020672;28;20030;-48
2023/11/24 13:24:55;;;;;;;29.15;4.38;;;;;;;;;;5020311;28;20026;-50
2023/11/24 13:27:22;;;;;;;26.42;4.13;;;;;;;;;;5003655;28;20040;-48
2023/11/24 13:29:49;;;;;;;34.30;4.05;;;;;;;;;;5019285;28;20498;-48
2023/11/24 13:32:16;;;;;;;25.45;3.40;;;;;;;;;;5022129;28;20472;-48
2023/11/24 13:34:43;;;;;;;35.20;4.13;;;;;;;;;;5019590;28;20502;-48
2023/11/24 13:37:11;;;;;;;25.92;3.15;;;;;;;;;;5022502;28;20075;-48
2023/11/24 13:39:38;;;;;;;24.08;3.10;;;;;;;;;;5022786;28;20057;-49
2023/11/24 13:42:05;;;;;;;19.67;3.10;;;;;;;;;;5020724;28;20025;-48
2023/11/24 13:44:34;;;;;;;25.08;3.00;;;;;;;;;;5019282;28;20061;-48
2023/11/24 13:47:01;;;;;;;23.00;2.63;;;;;;;;;;5021540;28;20041;-48
2023/11/24 13:49:28;;;;;;;12.55;2.45;;;;;;;;;;5020134;28;20116;-48
2023/11/24 13:51:55;;;;;;;18.63;2.60;;;;;;;;;;5020891;28;20033;-48
2023/11/24 13:54:25;;;;;;;20.02;2.42;;;;;;;;;;5019980;28;20030;-48
2023/11/24 13:56:55;;;;;;;26.50;3.45;;;;;;;;;;5020588;28;20491;-48
2023/11/24 13:59:22;;;;;;;29.60;3.40;;;;;;;;;;5022400;28;20045;-48
2023/11/24 14:01:49;;;;;;;26.88;3.00;;;;;;;;;;5031430;28;20048;-48
2023/11/24 14:04:16;;;;;;;20.63;2.40;;;;;;;;;;5021904;28;20108;-48
2023/11/24 14:06:47;;;;;;;16.67;2.30;;;;;;;;;;5011860;28;20041;-49
2023/11/24 14:09:17;;;;;;;19.85;2.78;;;;;;;;;;5021256;28;20566;-49
2023/11/24 14:11:48;;;;;;;26.60;3.20;;;;;;;;;;5021231;28;20072;-48
2023/11/24 14:14:15;;;;;;;20.85;2.55;;;;;;;;;;5021857;28;20099;-48
2023/11/24 14:16:46;;;;;;;21.20;2.33;;;;;;;;;;5020255;28;20384;-48
2023/11/24 14:19:14;;;;;;;20.40;2.80;;;;;;;;;;5022669;28;20390;-47
2023/11/24 14:21:44;;;;;;;22.33;2.90;;;;;;;;;;5031409;28;20037;-48
2023/11/24 14:24:11;;;;;;;21.00;2.97;;;;;;;;;;5023477;28;20022;-47
2023/11/24 14:26:42;;;;;;;28.10;2.65;;;;;;;;;;5011358;28;20033;-47
2023/11/24 14:29:10;;;;;;;31.73;3.13;;;;;;;;;;5011509;28;20091;-48
2023/11/24 14:31:38;;;;;;;20.15;3.17;;;;;;;;;;5011530;28;20066;-48